sensor_id;sensor_type;location;lat;lon;timestamp;pressure;altitude;pressure_sealevel;temperature;humidity
4836;BME280;66719;51.226;6.902;2023-08-30T00:01:24;100135.34;;;15.05;100.00
4836;BME280;66719;51.226;6.902;2023-08-30T00:03:50;100134.63;;;15.01;100.00
4836;BME280;66719;51.226;6.902;2023-08-30T00:06:17;100132.78;;;15.03;100.00
4836;BME280;66719;51.226;6.902;2023-08-30T00:08:44;100130.78;;;15.08;100.00
4836;BME280;66719;51.226;6.902;2023-08-30T00:11:10;100133.34;;;15.10;100.00
4836;BME280;66719;51.226;6.902;2023-08-30T00:13:37;100132.41;;;15.11;100.00
4836;BME280;66719;51.226;6.902;2023-08-30T00:16:03;100128.00;;;15.11;100.00
4836;BME280;66719;51.226;6.902;2023-08-30T00:18:30;100127.88;;;15.14;100.00
4836;BME280;66719;51.226;6.902;2023-08-30T00:20:57;100136.91;;;15.09;100.00
4836;BME280;66719;51.226;6.902;2023-08-30T00:23:24;100133.66;;;15.04;100.00
4836;BME280;66719;51.226;6.902;2023-08-30T00:25:50;100138.25;;;14.98;100.00
4836;BME280;66719;51.226;6.902;2023-08-30T00:28:17;100138.41;;;14.95;100.00
4836;BME280;66719;51.226;6.902;2023-08-30T00:30:44;100141.91;;;14.96;100.00
4836;BME280;66719;51.226;6.902;2023-08-30T00:33:10;100136.63;;;14.96;100.00
4836;BME280;66719;51.226;6.902;2023-08-30T00:35:37;100135.13;;;14.90;100.00
4836;BME280;66719;51.226;6.902;2023-08-30T00:38:03;100129.00;;;14.90;100.00
4836;BME280;66719;51.226;6.902;2023-08-30T00:40:37;100136.06;;;14.89;100.00
4836;BME280;66719;51.226;6.902;2023-08-30T00:43:05;100134.13;;;14.93;100.00
4836;BME280;66719;51.226;6.902;2023-08-30T00:45:32;100124.66;;;14.89;100.00
4836;BME280;66719;51.226;6.902;2023-08-30T00:47:59;100120.31;;;14.88;100.00
4836;BME280;66719;51.226;6.902;2023-08-30T00:50:25;100117.59;;;14.89;100.00
4836;BME280;66719;51.226;6.902;2023-08-30T00:52:52;100116.81;;;14.87;100.00
4836;BME280;66719;51.226;6.902;2023-08-30T00:55:18;100117.75;;;14.86;100.00
4836;BME280;66719;51.226;6.902;2023-08-30T00:57:45;100116.25;;;14.81;100.00
4836;BME280;66719;51.226;6.902;2023-08-30T01:00:14;100122.72;;;14.74;100.00
4836;BME280;66719;51.226;6.902;2023-08-30T01:02:40;100119.47;;;14.48;100.00
4836;BME280;66719;51.226;6.902;2023-08-30T01:05:07;100106.50;;;14.43;100.00
4836;BME280;66719;51.226;6.902;2023-08-30T01:07:35;100109.94;;;14.46;100.00
4836;BME280;66719;51.226;6.902;2023-08-30T01:10:01;100107.06;;;14.50;100.00
4836;BME280;66719;51.226;6.902;2023-08-30T01:12:38;100112.94;;;14.57;100.00
4836;BME280;66719;51.226;6.902;2023-08-30T01:15:10;100106.75;;;14.58;100.00
4836;BME280;66719;51.226;6.902;2023-08-30T01:17:39;100103.13;;;14.60;100.00
4836;BME280;66719;51.226;6.902;2023-08-30T01:20:08;100095.16;;;14.62;100.00
4836;BME280;66719;51.226;6.902;2023-08-30T01:23:05;100087.38;;;14.59;100.00
4836;BME280;66719;51.226;6.902;2023-08-30T01:25:49;100094.41;;;14.58;100.00
4836;BME280;66719;51.226;6.902;2023-08-30T01:28:21;100089.28;;;14.55;100.00
4836;BME280;66719;51.226;6.902;2023-08-30T01:30:49;100079.75;;;14.53;100.00
4836;BME280;66719;51.226;6.902;2023-08-30T01:33:17;100080.81;;;14.49;100.00
4836;BME280;66719;51.226;6.902;2023-08-30T01:35:45;100082.59;;;14.48;100.00
4836;BME280;66719;51.226;6.902;2023-08-30T01:38:14;100073.91;;;14.46;100.00
4836;BME280;66719;51.226;6.902;2023-08-30T01:40:42;100074.13;;;14.40;100.00
4836;BME280;66719;51.226;6.902;2023-08-30T01:43:10;100080.34;;;14.39;100.00
4836;BME280;66719;51.226;6.902;2023-08-30T01:45:42;100077.63;;;14.40;100.00
4836;BME280;66719;51.226;6.902;2023-08-30T01:48:13;100082.97;;;14.39;100.00
4836;BME280;66719;51.226;6.902;2023-08-30T01:50:41;100080.41;;;14.37;100.00
4836;BME280;66719;51.226;6.902;2023-08-30T01:53:10;100079.13;;;14.27;100.00
4836;BME280;66719;51.226;6.902;2023-08-30T01:55:38;100078.25;;;14.27;100.00
4836;BME280;66719;51.226;6.902;2023-08-30T01:58:06;100078.34;;;14.25;100.00
4836;BME280;66719;51.226;6.902;2023-08-30T02:00:35;100084.44;;;14.26;100.00
4836;BME280;66719;51.226;6.902;2023-08-30T02:03:11;100081.09;;;14.22;100.00
4836;BME280;66719;51.226;6.902;2023-08-30T02:06:04;100080.38;;;14.19;100.00
4836;BME280;66719;51.226;6.902;2023-08-30T02:08:48;100084.91;;;14.15;100.00
4836;BME280;66719;51.226;6.902;2023-08-30T02:11:23;100085.75;;;14.15;100.00
4836;BME280;66719;51.226;6.902;2023-08-30T02:13:51;100090.16;;;14.15;100.00
4836;BME280;66719;51.226;6.902;2023-08-30T02:16:20;100081.63;;;14.10;100.00
4836;BME280;66719;51.226;6.902;2023-08-30T02:18:49;100078.22;;;14.08;100.00
4836;BME280;66719;51.226;6.902;2023-08-30T02:21:16;100081.75;;;14.07;100.00
4836;BME280;66719;51.226;6.902;2023-08-30T02:23:42;100075.63;;;14.06;100.00
4836;BME280;66719;51.226;6.902;2023-08-30T02:26:09;100076.78;;;14.01;100.00
4836;BME280;66719;51.226;6.902;2023-08-30T02:28:35;100087.41;;;13.98;100.00
4836;BME280;66719;51.226;6.902;2023-08-30T02:31:04;100083.13;;;13.95;100.00
4836;BME280;66719;51.226;6.902;2023-08-30T02:33:30;100086.75;;;13.93;100.00
4836;BME280;66719;51.226;6.902;2023-08-30T02:35:57;100087.81;;;13.89;100.00
4836;BME280;66719;51.226;6.902;2023-08-30T02:38:23;100086.09;;;13.88;100.00
4836;BME280;66719;51.226;6.902;2023-08-30T02:40:50;100068.41;;;13.91;100.00
4836;BME280;66719;51.226;6.902;2023-08-30T02:43:16;100066.72;;;13.90;100.00
4836;BME280;66719;51.226;6.902;2023-08-30T02:45:43;100065.03;;;13.88;100.00
4836;BME280;66719;51.226;6.902;2023-08-30T02:48:10;100070.31;;;13.88;100.00
4836;BME280;66719;51.226;6.902;2023-08-30T02:50:37;100065.19;;;13.84;100.00
4836;BME280;66719;51.226;6.902;2023-08-30T02:53:03;100057.28;;;13.84;100.00
4836;BME280;66719;51.226;6.902;2023-08-30T02:55:31;100054.13;;;13.76;100.00
4836;BME280;66719;51.226;6.902;2023-08-30T02:57:57;100049.78;;;13.75;100.00
4836;BME280;66719;51.226;6.902;2023-08-30T03:00:24;100046.38;;;13.73;100.00
4836;BME280;66719;51.226;6.902;2023-08-30T03:02:50;100045.63;;;13.70;100.00
4836;BME280;66719;51.226;6.902;2023-08-30T03:05:17;100043.84;;;13.70;100.00
4836;BME280;66719;51.226;6.902;2023-08-30T03:07:44;100052.81;;;13.66;100.00
4836;BME280;66719;51.226;6.902;2023-08-30T03:10:11;100056.47;;;13.62;100.00
4836;BME280;66719;51.226;6.902;2023-08-30T03:12:38;100057.91;;;13.49;100.00
4836;BME280;66719;51.226;6.902;2023-08-30T03:15:05;100052.03;;;13.42;100.00
4836;BME280;66719;51.226;6.902;2023-08-30T03:17:31;100051.91;;;13.45;100.00
4836;BME280;66719;51.226;6.902;2023-08-30T03:19:58;100051.06;;;13.45;100.00
4836;BME280;66719;51.226;6.902;2023-08-30T03:22:25;100048.97;;;13.53;100.00
4836;BME280;66719;51.226;6.902;2023-08-30T03:24:51;100043.72;;;13.53;100.00
4836;BME280;66719;51.226;6.902;2023-08-30T03:27:18;100039.44;;;13.50;100.00
4836;BME280;66719;51.226;6.902;2023-08-30T03:29:46;100034.19;;;13.50;100.00
4836;BME280;66719;51.226;6.902;2023-08-30T03:32:20;100038.38;;;13.54;100.00
4836;BME280;66719;51.226;6.902;2023-08-30T03:34:49;100034.88;;;13.54;100.00
4836;BME280;66719;51.226;6.902;2023-08-30T03:37:17;100035.94;;;13.50;100.00
4836;BME280;66719;51.226;6.902;2023-08-30T03:39:43;100024.50;;;13.51;100.00
4836;BME280;66719;51.226;6.902;2023-08-30T03:42:10;100031.63;;;13.49;100.00
4836;BME280;66719;51.226;6.902;2023-08-30T03:44:37;100029.00;;;13.49;100.00
4836;BME280;66719;51.226;6.902;2023-08-30T03:47:04;100035.03;;;13.51;100.00
4836;BME280;66719;51.226;6.902;2023-08-30T03:49:31;100030.75;;;13.48;100.00
4836;BME280;66719;51.226;6.902;2023-08-30T03:51:58;100035.41;;;13.42;100.00
4836;BME280;66719;51.226;6.902;2023-08-30T03:54:24;100027.47;;;13.43;100.00
4836;BME280;66719;51.226;6.902;2023-08-30T03:56:51;100030.34;;;13.37;100.00
4836;BME280;66719;51.226;6.902;2023-08-30T03:59:17;100032.38;;;13.31;100.00
4836;BME280;66719;51.226;6.902;2023-08-30T04:01:44;100028.16;;;13.26;100.00
4836;BME280;66719;51.226;6.902;2023-08-30T04:04:11;100026.38;;;13.27;100.00
4836;BME280;66719;51.226;6.902;2023-08-30T04:06:38;100021.91;;;13.29;100.00
4836;BME280;66719;51.226;6.902;2023-08-30T04:09:05;100021.97;;;13.27;100.00
4836;BME280;66719;51.226;6.902;2023-08-30T04:11:31;100016.91;;;13.23;100.00
4836;BME280;66719;51.226;6.902;2023-08-30T04:13:59;100017.91;;;13.19;100.00
4836;BME280;66719;51.226;6.902;2023-08-30T04:16:25;100015.41;;;13.16;100.00
4836;BME280;66719;51.226;6.902;2023-08-30T04:18:52;100014.56;;;13.15;100.00
4836;BME280;66719;51.226;6.902;2023-08-30T04:21:18;100015.41;;;13.16;100.00
4836;BME280;66719;51.226;6.902;2023-08-30T04:23:45;100025.75;;;13.20;100.00
4836;BME280;66719;51.226;6.902;2023-08-30T04:26:11;100022.25;;;13.21;100.00
4836;BME280;66719;51.226;6.902;2023-08-30T04:28:37;100020.34;;;13.25;100.00
4836;BME280;66719;51.226;6.902;2023-08-30T04:31:04;100008.66;;;13.32;100.00
4836;BME280;66719;51.226;6.902;2023-08-30T04:33:31;100006.56;;;13.40;100.00
4836;BME280;66719;51.226;6.902;2023-08-30T04:35:57;100002.78;;;13.46;100.00
4836;BME280;66719;51.226;6.902;2023-08-30T04:38:26;100003.72;;;13.45;100.00
4836;BME280;66719;51.226;6.902;2023-08-30T04:40:57;99993.19;;;13.45;100.00
4836;BME280;66719;51.226;6.902;2023-08-30T04:43:25;99999.44;;;13.42;100.00
4836;BME280;66719;51.226;6.902;2023-08-30T04:45:52;99996.03;;;13.40;100.00
4836;BME280;66719;51.226;6.902;2023-08-30T04:48:18;99999.78;;;13.35;100.00
4836;BME280;66719;51.226;6.902;2023-08-30T04:50:45;100000.88;;;13.29;100.00
4836;BME280;66719;51.226;6.902;2023-08-30T04:53:12;100002.66;;;13.28;100.00
4836;BME280;66719;51.226;6.902;2023-08-30T04:55:38;100000.00;;;13.28;100.00
4836;BME280;66719;51.226;6.902;2023-08-30T04:58:05;99989.47;;;13.30;100.00
4836;BME280;66719;51.226;6.902;2023-08-30T05:00:32;99992.13;;;13.28;100.00
4836;BME280;66719;51.226;6.902;2023-08-30T05:02:59;99999.22;;;13.26;100.00
4836;BME280;66719;51.226;6.902;2023-08-30T05:05:25;99986.88;;;13.28;100.00
4836;BME280;66719;51.226;6.902;2023-08-30T05:07:52;99988.72;;;13.26;100.00
4836;BME280;66719;51.226;6.902;2023-08-30T05:10:18;99984.25;;;13.28;100.00
4836;BME280;66719;51.226;6.902;2023-08-30T05:12:45;99976.31;;;13.30;100.00
4836;BME280;66719;51.226;6.902;2023-08-30T05:15:16;99977.28;;;13.27;100.00
4836;BME280;66719;51.226;6.902;2023-08-30T05:17:42;99978.13;;;13.28;100.00
4836;BME280;66719;51.226;6.902;2023-08-30T05:20:09;99972.69;;;13.33;100.00
4836;BME280;66719;51.226;6.902;2023-08-30T05:22:36;99977.16;;;13.31;100.00
4836;BME280;66719;51.226;6.902;2023-08-30T05:25:02;99966.69;;;13.29;100.00
4836;BME280;66719;51.226;6.902;2023-08-30T05:27:29;99964.88;;;13.31;100.00
4836;BME280;66719;51.226;6.902;2023-08-30T05:29:56;99959.47;;;13.34;100.00
4836;BME280;66719;51.226;6.902;2023-08-30T05:32:23;99954.22;;;13.34;100.00
4836;BME280;66719;51.226;6.902;2023-08-30T05:34:49;99958.47;;;13.37;100.00
4836;BME280;66719;51.226;6.902;2023-08-30T05:37:16;99941.00;;;13.36;100.00
4836;BME280;66719;51.226;6.902;2023-08-30T05:39:42;99942.91;;;13.32;100.00
4836;BME280;66719;51.226;6.902;2023-08-30T05:42:09;99943.75;;;13.33;100.00
4836;BME280;66719;51.226;6.902;2023-08-30T05:44:35;99947.25;;;13.33;100.00
4836;BME280;66719;51.226;6.902;2023-08-30T05:47:02;99942.00;;;13.33;100.00
4836;BME280;66719;51.226;6.902;2023-08-30T05:49:28;99934.97;;;13.34;100.00
4836;BME280;66719;51.226;6.902;2023-08-30T05:51:55;99935.75;;;13.36;100.00
4836;BME280;66719;51.226;6.902;2023-08-30T05:54:21;99946.06;;;13.40;100.00
4836;BME280;66719;51.226;6.902;2023-08-30T05:56:48;99935.47;;;13.42;100.00
4836;BME280;66719;51.226;6.902;2023-08-30T05:59:14;99936.09;;;13.48;100.00
4836;BME280;66719;51.226;6.902;2023-08-30T06:01:41;99941.06;;;13.54;100.00
4836;BME280;66719;51.226;6.902;2023-08-30T06:04:08;99926.78;;;13.60;100.00
4836;BME280;66719;51.226;6.902;2023-08-30T06:06:34;99917.78;;;13.66;100.00
4836;BME280;66719;51.226;6.902;2023-08-30T06:09:01;99924.50;;;13.73;100.00
4836;BME280;66719;51.226;6.902;2023-08-30T06:11:27;99920.78;;;13.77;100.00
4836;BME280;66719;51.226;6.902;2023-08-30T06:13:54;99914.53;;;13.79;100.00
4836;BME280;66719;51.226;6.902;2023-08-30T06:16:21;99912.69;;;13.81;100.00
4836;BME280;66719;51.226;6.902;2023-08-30T06:18:47;99911.69;;;13.84;100.00
4836;BME280;66719;51.226;6.902;2023-08-30T06:21:14;99917.66;;;13.88;100.00
4836;BME280;66719;51.226;6.902;2023-08-30T06:23:40;99913.25;;;13.88;100.00
4836;BME280;66719;51.226;6.902;2023-08-30T06:26:07;99910.44;;;13.93;100.00
4836;BME280;66719;51.226;6.902;2023-08-30T06:28:34;99914.69;;;13.95;100.00
4836;BME280;66719;51.226;6.902;2023-08-30T06:31:03;99907.56;;;13.97;100.00
4836;BME280;66719;51.226;6.902;2023-08-30T06:33:30;99913.56;;;14.01;100.00
4836;BME280;66719;51.226;6.902;2023-08-30T06:35:56;99918.75;;;14.02;100.00
4836;BME280;66719;51.226;6.902;2023-08-30T06:38:23;99909.78;;;14.06;100.00
4836;BME280;66719;51.226;6.902;2023-08-30T06:40:49;99918.41;;;14.10;100.00
4836;BME280;66719;51.226;6.902;2023-08-30T06:43:16;99911.97;;;14.15;100.00
4836;BME280;66719;51.226;6.902;2023-08-30T06:45:42;99910.00;;;14.21;100.00
4836;BME280;66719;51.226;6.902;2023-08-30T06:48:09;99912.56;;;14.22;100.00
4836;BME280;66719;51.226;6.902;2023-08-30T06:50:37;99901.91;;;14.25;100.00
4836;BME280;66719;51.226;6.902;2023-08-30T06:53:04;99907.88;;;14.29;100.00
4836;BME280;66719;51.226;6.902;2023-08-30T06:55:31;99898.09;;;14.31;100.00
4836;BME280;66719;51.226;6.902;2023-08-30T06:57:58;99896.31;;;14.31;100.00
4836;BME280;66719;51.226;6.902;2023-08-30T07:00:25;99894.50;;;14.33;100.00
4836;BME280;66719;51.226;6.902;2023-08-30T07:02:52;99887.38;;;14.35;100.00
4836;BME280;66719;51.226;6.902;2023-08-30T07:05:18;99884.66;;;14.37;100.00
4836;BME280;66719;51.226;6.902;2023-08-30T07:07:45;99884.50;;;14.40;100.00
4836;BME280;66719;51.226;6.902;2023-08-30T07:10:11;99889.63;;;14.43;100.00
4836;BME280;66719;51.226;6.902;2023-08-30T07:12:38;99892.28;;;14.43;100.00
4836;BME280;66719;51.226;6.902;2023-08-30T07:15:05;99890.38;;;14.47;100.00
4836;BME280;66719;51.226;6.902;2023-08-30T07:17:31;99891.06;;;14.50;100.00
4836;BME280;66719;51.226;6.902;2023-08-30T07:20:16;99891.78;;;14.54;100.00
4836;BME280;66719;51.226;6.902;2023-08-30T07:22:43;99885.50;;;14.56;100.00
4836;BME280;66719;51.226;6.902;2023-08-30T07:25:17;99884.34;;;14.62;100.00
4836;BME280;66719;51.226;6.902;2023-08-30T07:27:44;99884.13;;;14.66;100.00
4836;BME280;66719;51.226;6.902;2023-08-30T07:30:11;99885.78;;;14.69;100.00
4836;BME280;66719;51.226;6.902;2023-08-30T07:32:38;99882.13;;;14.72;100.00
4836;BME280;66719;51.226;6.902;2023-08-30T07:35:05;99881.03;;;14.76;100.00
4836;BME280;66719;51.226;6.902;2023-08-30T07:37:32;99878.19;;;14.80;100.00
4836;BME280;66719;51.226;6.902;2023-08-30T07:39:59;99872.75;;;14.83;100.00
4836;BME280;66719;51.226;6.902;2023-08-30T07:42:25;99875.25;;;14.86;100.00
4836;BME280;66719;51.226;6.902;2023-08-30T07:44:52;99879.50;;;14.89;100.00
4836;BME280;66719;51.226;6.902;2023-08-30T07:47:19;99873.94;;;14.95;100.00
4836;BME280;66719;51.226;6.902;2023-08-30T07:49:45;99865.09;;;14.96;100.00
4836;BME280;66719;51.226;6.902;2023-08-30T07:52:11;99870.09;;;15.01;100.00
4836;BME280;66719;51.226;6.902;2023-08-30T07:54:40;99874.44;;;15.02;100.00
4836;BME280;66719;51.226;6.902;2023-08-30T07:57:07;99877.81;;;15.05;100.00
4836;BME280;66719;51.226;6.902;2023-08-30T07:59:35;99874.91;;;15.10;100.00
4836;BME280;66719;51.226;6.902;2023-08-30T08:02:03;99874.69;;;15.14;100.00
4836;BME280;66719;51.226;6.902;2023-08-30T08:04:36;99878.88;;;15.18;100.00
4836;BME280;66719;51.226;6.902;2023-08-30T08:07:03;99879.41;;;15.25;100.00
4836;BME280;66719;51.226;6.902;2023-08-30T08:09:31;99871.97;;;15.33;100.00
4836;BME280;66719;51.226;6.902;2023-08-30T08:11:58;99879.38;;;15.42;100.00
4836;BME280;66719;51.226;6.902;2023-08-30T08:14:25;99886.06;;;15.49;100.00
4836;BME280;66719;51.226;6.902;2023-08-30T08:16:52;99877.66;;;15.59;100.00
4836;BME280;66719;51.226;6.902;2023-08-30T08:19:18;99884.94;;;15.71;100.00
4836;BME280;66719;51.226;6.902;2023-08-30T08:21:51;99880.09;;;15.79;100.00
4836;BME280;66719;51.226;6.902;2023-08-30T08:24:20;99871.25;;;15.80;100.00
4836;BME280;66719;51.226;6.902;2023-08-30T08:26:47;99875.34;;;15.86;100.00
4836;BME280;66719;51.226;6.902;2023-08-30T08:29:13;99874.19;;;15.91;100.00
4836;BME280;66719;51.226;6.902;2023-08-30T08:31:40;99880.91;;;15.97;100.00
4836;BME280;66719;51.226;6.902;2023-08-30T08:34:11;99873.41;;;16.05;100.00
4836;BME280;66719;51.226;6.902;2023-08-30T08:36:39;99867.03;;;16.09;100.00
4836;BME280;66719;51.226;6.902;2023-08-30T08:39:06;99860.72;;;16.11;100.00
4836;BME280;66719;51.226;6.902;2023-08-30T08:41:39;99870.16;;;16.16;100.00
4836;BME280;66719;51.226;6.902;2023-08-30T08:44:09;99867.91;;;16.25;100.00
4836;BME280;66719;51.226;6.902;2023-08-30T08:46:38;99867.53;;;16.31;100.00
4836;BME280;66719;51.226;6.902;2023-08-30T08:49:11;99860.22;;;16.36;100.00
4836;BME280;66719;51.226;6.902;2023-08-30T08:51:40;99869.66;;;16.40;100.00
4836;BME280;66719;51.226;6.902;2023-08-30T08:54:09;99864.88;;;16.47;100.00
4836;BME280;66719;51.226;6.902;2023-08-30T08:56:37;99866.06;;;16.57;100.00
4836;BME280;66719;51.226;6.902;2023-08-30T08:59:04;99862.22;;;16.63;100.00
4836;BME280;66719;51.226;6.902;2023-08-30T09:01:35;99869.88;;;16.67;100.00
4836;BME280;66719;51.226;6.902;2023-08-30T09:04:07;99866.16;;;16.72;100.00
4836;BME280;66719;51.226;6.902;2023-08-30T09:06:34;99862.13;;;16.80;100.00
4836;BME280;66719;51.226;6.902;2023-08-30T09:09:03;99870.03;;;16.96;100.00
4836;BME280;66719;51.226;6.902;2023-08-30T09:11:35;99868.03;;;17.00;100.00
4836;BME280;66719;51.226;6.902;2023-08-30T09:14:16;99866.25;;;17.00;100.00
4836;BME280;66719;51.226;6.902;2023-08-30T09:16:53;99858.75;;;16.92;100.00
4836;BME280;66719;51.226;6.902;2023-08-30T09:19:20;99869.22;;;16.80;100.00
4836;BME280;66719;51.226;6.902;2023-08-30T09:21:54;99874.31;;;16.67;100.00
4836;BME280;66719;51.226;6.902;2023-08-30T09:24:21;99877.00;;;16.51;100.00
4836;BME280;66719;51.226;6.902;2023-08-30T09:26:50;99874.38;;;16.35;100.00
4836;BME280;66719;51.226;6.902;2023-08-30T09:29:18;99868.75;;;16.26;100.00
4836;BME280;66719;51.226;6.902;2023-08-30T09:31:45;99857.38;;;16.24;100.00
4836;BME280;66719;51.226;6.902;2023-08-30T09:34:12;99863.47;;;16.26;100.00
4836;BME280;66719;51.226;6.902;2023-08-30T09:36:40;99858.75;;;16.31;100.00
4836;BME280;66719;51.226;6.902;2023-08-30T09:39:09;99857.81;;;16.32;100.00
4836;BME280;66719;51.226;6.902;2023-08-30T09:44:14;99850.16;;;16.27;100.00
4836;BME280;66719;51.226;6.902;2023-08-30T09:46:51;99845.72;;;16.28;100.00
4836;BME280;66719;51.226;6.902;2023-08-30T09:49:25;99834.81;;;16.34;100.00
4836;BME280;66719;51.226;6.902;2023-08-30T09:51:53;99835.06;;;16.45;100.00
4836;BME280;66719;51.226;6.902;2023-08-30T09:54:24;99832.06;;;16.51;100.00
4836;BME280;66719;51.226;6.902;2023-08-30T09:56:54;99830.19;;;16.53;100.00
4836;BME280;66719;51.226;6.902;2023-08-30T09:59:23;99827.69;;;16.50;100.00
4836;BME280;66719;51.226;6.902;2023-08-30T10:01:50;99827.88;;;16.47;100.00
4836;BME280;66719;51.226;6.902;2023-08-30T10:04:20;99830.88;;;16.41;100.00
4836;BME280;66719;51.226;6.902;2023-08-30T10:06:47;99836.53;;;16.35;100.00
4836;BME280;66719;51.226;6.902;2023-08-30T10:09:15;99830.63;;;16.30;100.00
4836;BME280;66719;51.226;6.902;2023-08-30T10:11:45;99823.84;;;16.26;100.00
4836;BME280;66719;51.226;6.902;2023-08-30T10:14:12;99827.56;;;16.22;100.00
4836;BME280;66719;51.226;6.902;2023-08-30T10:16:44;99829.34;;;16.21;100.00
4836;BME280;66719;51.226;6.902;2023-08-30T10:19:21;99833.97;;;16.18;100.00
4836;BME280;66719;51.226;6.902;2023-08-30T10:22:10;99831.66;;;16.11;100.00
4836;BME280;66719;51.226;6.902;2023-08-30T10:24:45;99836.34;;;16.06;100.00
4836;BME280;66719;51.226;6.902;2023-08-30T10:27:33;99824.25;;;16.02;100.00
4836;BME280;66719;51.226;6.902;2023-08-30T10:30:02;99824.34;;;16.01;100.00
4836;BME280;66719;51.226;6.902;2023-08-30T10:32:30;99823.66;;;15.97;100.00
4836;BME280;66719;51.226;6.902;2023-08-30T10:35:01;99824.59;;;15.96;100.00
4836;BME280;66719;51.226;6.902;2023-08-30T10:37:29;99814.13;;;15.95;100.00
4836;BME280;66719;51.226;6.902;2023-08-30T10:40:00;99810.38;;;15.99;100.00
4836;BME280;66719;51.226;6.902;2023-08-30T10:42:32;99812.75;;;16.03;100.00
4836;BME280;66719;51.226;6.902;2023-08-30T10:45:00;99816.16;;;16.05;100.00
4836;BME280;66719;51.226;6.902;2023-08-30T10:47:40;99818.56;;;16.10;100.00
4836;BME280;66719;51.226;6.902;2023-08-30T10:50:10;99815.81;;;16.11;100.00
4836;BME280;66719;51.226;6.902;2023-08-30T10:52:37;99814.97;;;16.11;100.00
4836;BME280;66719;51.226;6.902;2023-08-30T10:55:08;99813.28;;;16.10;100.00
4836;BME280;66719;51.226;6.902;2023-08-30T10:57:36;99820.59;;;16.05;100.00
4836;BME280;66719;51.226;6.902;2023-08-30T11:02:37;99847.31;;;15.67;100.00
4836;BME280;66719;51.226;6.902;2023-08-30T11:05:08;99846.16;;;15.55;100.00
4836;BME280;66719;51.226;6.902;2023-08-30T11:07:35;99843.56;;;15.38;100.00
4836;BME280;66719;51.226;6.902;2023-08-30T11:10:05;99847.69;;;15.26;100.00
4836;BME280;66719;51.226;6.902;2023-08-30T11:12:33;99852.66;;;15.15;100.00
4836;BME280;66719;51.226;6.902;2023-08-30T11:15:00;99850.41;;;15.08;100.00
4836;BME280;66719;51.226;6.902;2023-08-30T11:17:27;99848.94;;;15.02;100.00
4836;BME280;66719;51.226;6.902;2023-08-30T11:19:58;99842.50;;;15.08;100.00
4836;BME280;66719;51.226;6.902;2023-08-30T11:22:31;99842.34;;;15.11;100.00
4836;BME280;66719;51.226;6.902;2023-08-30T11:24:57;99846.84;;;15.09;100.00
4836;BME280;66719;51.226;6.902;2023-08-30T11:27:24;99840.81;;;15.07;100.00
4836;BME280;66719;51.226;6.902;2023-08-30T11:29:50;99841.50;;;15.10;100.00
4836;BME280;66719;51.226;6.902;2023-08-30T11:32:17;99836.75;;;15.17;100.00
4836;BME280;66719;51.226;6.902;2023-08-30T11:34:44;99832.25;;;15.19;100.00
4836;BME280;66719;51.226;6.902;2023-08-30T11:37:11;99838.22;;;15.22;100.00
4836;BME280;66719;51.226;6.902;2023-08-30T11:39:38;99836.06;;;15.13;100.00
4836;BME280;66719;51.226;6.902;2023-08-30T11:42:05;99836.94;;;15.14;100.00
4836;BME280;66719;51.226;6.902;2023-08-30T11:44:45;99834.84;;;15.20;100.00
4836;BME280;66719;51.226;6.902;2023-08-30T11:47:17;99832.88;;;15.24;100.00
4836;BME280;66719;51.226;6.902;2023-08-30T11:49:45;99817.13;;;15.22;100.00
4836;BME280;66719;51.226;6.902;2023-08-30T11:52:12;99822.22;;;15.25;100.00
4836;BME280;66719;51.226;6.902;2023-08-30T11:54:39;99821.22;;;15.28;100.00
4836;BME280;66719;51.226;6.902;2023-08-30T11:57:08;99817.97;;;15.23;100.00
4836;BME280;66719;51.226;6.902;2023-08-30T11:59:35;99828.44;;;15.24;100.00
4836;BME280;66719;51.226;6.902;2023-08-30T12:02:03;99823.78;;;15.30;100.00
4836;BME280;66719;51.226;6.902;2023-08-30T12:04:40;99824.31;;;15.36;100.00
4836;BME280;66719;51.226;6.902;2023-08-30T12:07:07;99825.84;;;15.40;100.00
4836;BME280;66719;51.226;6.902;2023-08-30T12:09:34;99825.09;;;15.38;100.00
4836;BME280;66719;51.226;6.902;2023-08-30T12:12:10;99831.13;;;15.40;100.00
4836;BME280;66719;51.226;6.902;2023-08-30T12:14:37;99823.22;;;15.40;100.00
4836;BME280;66719;51.226;6.902;2023-08-30T12:17:05;99821.84;;;15.33;100.00
4836;BME280;66719;51.226;6.902;2023-08-30T12:19:31;99820.31;;;15.29;100.00
4836;BME280;66719;51.226;6.902;2023-08-30T12:22:05;99814.84;;;15.32;100.00
4836;BME280;66719;51.226;6.902;2023-08-30T12:24:45;99824.19;;;15.22;100.00
4836;BME280;66719;51.226;6.902;2023-08-30T12:27:13;99822.03;;;15.13;100.00
4836;BME280;66719;51.226;6.902;2023-08-30T12:29:40;99821.19;;;15.12;100.00
4836;BME280;66719;51.226;6.902;2023-08-30T12:32:07;99808.69;;;15.16;100.00
4836;BME280;66719;51.226;6.902;2023-08-30T12:34:34;99804.78;;;15.23;100.00
4836;BME280;66719;51.226;6.902;2023-08-30T12:37:01;99804.53;;;15.27;100.00
4836;BME280;66719;51.226;6.902;2023-08-30T12:39:31;99799.88;;;15.33;100.00
4836;BME280;66719;51.226;6.902;2023-08-30T12:41:57;99800.66;;;15.35;100.00
4836;BME280;66719;51.226;6.902;2023-08-30T12:44:24;99806.63;;;15.38;100.00
4836;BME280;66719;51.226;6.902;2023-08-30T12:46:50;99812.75;;;15.39;100.00
4836;BME280;66719;51.226;6.902;2023-08-30T12:49:17;99812.81;;;15.37;100.00
4836;BME280;66719;51.226;6.902;2023-08-30T12:51:43;99809.28;;;15.38;100.00
4836;BME280;66719;51.226;6.902;2023-08-30T12:54:10;99805.84;;;15.36;100.00
4836;BME280;66719;51.226;6.902;2023-08-30T12:56:36;99804.00;;;15.38;100.00
4836;BME280;66719;51.226;6.902;2023-08-30T12:59:03;99812.03;;;15.35;100.00
4836;BME280;66719;51.226;6.902;2023-08-30T13:01:30;99817.50;;;15.32;100.00
4836;BME280;66719;51.226;6.902;2023-08-30T13:03:56;99814.09;;;15.30;100.00
4836;BME280;66719;51.226;6.902;2023-08-30T13:06:23;99808.28;;;15.23;100.00
4836;BME280;66719;51.226;6.902;2023-08-30T13:08:50;99811.00;;;15.22;100.00